createdAt,value
2019-06-08T00:00:44.179Z,995.24
2019-06-08T00:01:44.677Z,995.24
2019-06-08T00:02:44.040Z,995.31
2019-06-08T00:03:45.161Z,995.27
2019-06-08T00:04:44.411Z,995.33
2019-06-08T00:05:44.670Z,995.34
2019-06-08T00:06:44.732Z,995.29
2019-06-08T00:08:19.154Z,995.21
2019-06-08T00:08:45.685Z,995.31
2019-06-08T00:09:45.341Z,995.24
2019-06-08T00:10:45.472Z,995.29
2019-06-08T00:11:45.649Z,995.19
2019-06-08T00:12:46.679Z,995.26
2019-06-08T00:13:45.951Z,995.25
2019-06-08T00:14:47.693Z,995.19
2019-06-08T00:15:46.308Z,995.11
2019-06-08T00:16:46.479Z,995.16
2019-06-08T00:17:46.640Z,995.15
2019-06-08T00:18:47.694Z,995.23
2019-06-08T00:19:47.679Z,995.21
2019-06-08T00:20:47.064Z,995.44
2019-06-08T00:21:47.700Z,995.32
2019-06-08T00:22:47.366Z,995.37
2019-06-08T00:23:48.190Z,995.43
2019-06-08T00:24:48.698Z,995.27
2019-06-08T00:25:47.807Z,995.51
2019-06-08T00:26:47.995Z,995.35
2019-06-08T00:27:48.700Z,995.33
2019-06-08T00:28:48.381Z,995.46
2019-06-08T00:29:48.570Z,995.54
2019-06-08T00:31:03.715Z,995.61
2019-06-08T00:31:48.993Z,995.53
2019-06-08T00:32:49.129Z,995.53
2019-06-08T00:33:49.280Z,995.66
2019-06-08T00:34:49.445Z,995.51
2019-06-08T00:35:49.594Z,995.46
2019-06-08T00:36:49.741Z,995.76
2019-06-08T00:37:49.904Z,995.58
2019-06-08T00:38:50.071Z,995.58
2019-06-08T00:39:50.219Z,995.57
2019-06-08T00:41:23.791Z,995.67
2019-06-08T00:41:50.565Z,995.63
2019-06-08T00:42:50.831Z,995.65
2019-06-08T00:43:50.974Z,995.75
2019-06-08T00:44:51.134Z,995.75
2019-06-08T00:45:51.326Z,995.74
2019-06-08T00:46:51.550Z,995.67
2019-06-08T00:47:51.742Z,995.73
2019-06-08T00:48:51.891Z,995.72
2019-06-08T00:49:52.729Z,995.72
2019-06-08T00:50:52.245Z,995.74
2019-06-08T00:51:53.229Z,995.64
2019-06-08T00:52:52.666Z,995.68
2019-06-08T00:53:52.846Z,995.62
2019-06-08T00:54:53.020Z,995.59
2019-06-08T00:55:53.730Z,995.62
2019-06-08T00:56:53.372Z,995.62
2019-06-08T00:57:53.542Z,995.63
2019-06-08T00:58:53.706Z,995.54
2019-06-08T00:59:53.862Z,995.77
2019-06-08T01:00:54.048Z,995.71
2019-06-08T01:01:54.213Z,995.64
2019-06-08T01:02:54.385Z,995.71
2019-06-08T01:03:54.742Z,995.72
2019-06-08T01:04:54.781Z,995.75
2019-06-08T01:05:55.740Z,995.78
2019-06-08T01:06:55.160Z,995.80
2019-06-08T01:07:55.324Z,995.76
2019-06-08T01:08:55.485Z,995.82
2019-06-08T01:09:55.663Z,995.82
2019-06-08T01:10:55.865Z,995.79
2019-06-08T01:11:56.737Z,995.81
2019-06-08T01:12:56.245Z,995.81
2019-06-08T01:13:56.416Z,995.80
2019-06-08T01:14:56.561Z,995.87
2019-06-08T01:15:56.734Z,995.83
2019-06-08T01:16:56.882Z,995.92
2019-06-08T01:18:02.650Z,995.78
2019-06-08T01:18:59.210Z,995.78
2019-06-08T01:19:58.236Z,995.92
2019-06-08T01:20:57.543Z,995.92
2019-06-08T01:21:58.233Z,995.88
2019-06-08T01:22:58.736Z,995.94
2019-06-08T01:23:58.167Z,995.88
2019-06-08T01:24:58.353Z,996.10
2019-06-08T01:25:58.524Z,995.97
2019-06-08T01:26:59.235Z,995.98
2019-06-08T01:27:58.872Z,996.00
2019-06-08T01:28:59.061Z,995.97
2019-06-08T01:29:59.744Z,995.93
2019-06-08T01:30:59.436Z,995.96
2019-06-08T01:31:59.654Z,995.98
2019-06-08T01:33:00.737Z,995.99
2019-06-08T01:34:00.018Z,995.92
2019-06-08T01:35:00.270Z,995.88
2019-06-08T01:36:00.346Z,995.91
2019-06-08T01:37:00.526Z,996.07
2019-06-08T01:38:01.249Z,996.06
2019-06-08T01:39:00.959Z,995.95
2019-06-08T01:40:01.164Z,995.99
2019-06-08T01:41:02.258Z,996.16
2019-06-08T01:42:01.538Z,996.04
2019-06-08T01:43:01.723Z,996.06
2019-06-08T01:44:02.749Z,995.99
2019-06-08T01:45:02.209Z,996.01
2019-06-08T01:46:02.272Z,995.98
2019-06-08T01:47:02.436Z,996.02
2019-06-08T01:48:15.900Z,995.98
2019-06-08T01:49:04.707Z,996.03
2019-06-08T01:50:03.271Z,996.06
2019-06-08T01:51:03.361Z,996.07
2019-06-08T01:52:03.300Z,996.15
2019-06-08T01:53:03.462Z,996.01
2019-06-08T01:54:03.594Z,995.99
2019-06-08T01:55:03.800Z,996.03
2019-06-08T01:56:03.989Z,996.00
2019-06-08T01:57:04.220Z,995.99
2019-06-08T01:58:04.402Z,996.05
2019-06-08T01:59:05.245Z,995.96
2019-06-08T02:00:29.135Z,996.12
2019-06-08T02:01:07.257Z,995.95
2019-06-08T02:02:05.131Z,995.98
2019-06-08T02:03:05.310Z,995.95
2019-06-08T02:04:06.250Z,996.02
2019-06-08T02:05:05.655Z,995.98
2019-06-08T02:06:06.751Z,995.97
2019-06-08T02:07:06.104Z,996.04
2019-06-08T02:08:06.750Z,996.03
2019-06-08T02:09:06.419Z,996.05
2019-06-08T02:10:06.766Z,996.04
2019-06-08T02:11:07.255Z,996.06
2019-06-08T02:12:07.063Z,996.02
2019-06-08T02:13:08.829Z,996.03
2019-06-08T02:14:08.424Z,996.03
2019-06-08T02:15:07.565Z,996.04
2019-06-08T02:16:07.753Z,996.15
2019-06-08T02:17:07.958Z,996.05
2019-06-08T02:18:08.121Z,996.13
2019-06-08T02:19:08.284Z,996.10
2019-06-08T02:20:08.481Z,996.17
2019-06-08T02:21:08.679Z,996.05
2019-06-08T02:22:09.258Z,996.17
2019-06-08T02:23:09.030Z,996.19
2019-06-08T02:24:09.200Z,996.15
2019-06-08T02:25:09.366Z,996.14
2019-06-08T02:26:09.552Z,996.15
2019-06-08T02:27:09.720Z,996.24
2019-06-08T02:28:10.748Z,996.14
2019-06-08T02:29:10.758Z,996.24
2019-06-08T02:30:10.269Z,996.23
2019-06-08T02:31:11.259Z,996.09
2019-06-08T02:32:10.541Z,996.27
2019-06-08T02:33:10.730Z,996.19
2019-06-08T02:34:10.921Z,996.29
2019-06-08T02:35:11.069Z,996.26
2019-06-08T02:36:11.285Z,996.23
2019-06-08T02:37:12.251Z,996.28
2019-06-08T02:38:11.640Z,996.22
2019-06-08T02:39:11.812Z,996.35
2019-06-08T02:40:11.952Z,996.39
2019-06-08T02:41:12.115Z,996.28
2019-06-08T02:42:13.251Z,996.39
2019-06-08T02:43:12.538Z,996.36
2019-06-08T02:44:12.689Z,996.38
2019-06-08T02:45:12.844Z,996.41
2019-06-08T02:46:12.993Z,996.41
2019-06-08T02:47:16.290Z,996.51
2019-06-08T02:48:14.373Z,996.52
2019-06-08T02:49:13.485Z,996.51
2019-06-08T02:50:13.669Z,996.54
2019-06-08T02:51:13.840Z,996.46
2019-06-08T02:52:13.997Z,996.56
2019-06-08T02:53:14.271Z,996.59
2019-06-08T02:54:15.344Z,996.82
2019-06-08T02:55:14.479Z,996.59
2019-06-08T02:56:15.248Z,996.60
2019-06-08T02:57:14.769Z,996.69
2019-06-08T02:58:15.757Z,996.65
2019-06-08T02:59:15.264Z,996.62
2019-06-08T03:00:16.260Z,996.70
2019-06-08T03:01:16.241Z,996.70
2019-06-08T03:02:16.750Z,996.51
2019-06-08T03:03:15.872Z,996.77
2019-06-08T03:04:16.055Z,996.73
2019-06-08T03:05:16.761Z,996.79
2019-06-08T03:06:17.248Z,996.65
2019-06-08T03:07:17.258Z,996.84
2019-06-08T03:08:16.750Z,996.84
2019-06-08T03:09:16.956Z,996.82
2019-06-08T03:10:17.141Z,996.85
2019-06-08T03:11:17.306Z,996.90
2019-06-08T03:12:18.259Z,996.79
2019-06-08T03:13:17.673Z,996.82
2019-06-08T03:14:17.888Z,996.83
2019-06-08T03:15:18.066Z,996.85
2019-06-08T03:16:18.766Z,996.87
2019-06-08T03:17:19.267Z,996.93
2019-06-08T03:18:18.672Z,996.91
2019-06-08T03:19:22.386Z,997.00
2019-06-08T03:20:20.092Z,996.92
2019-06-08T03:21:19.232Z,996.97
2019-06-08T03:22:19.416Z,997.04
2019-06-08T03:23:20.263Z,997.01
2019-06-08T03:24:20.283Z,997.12
2019-06-08T03:25:19.938Z,997.12
2019-06-08T03:26:20.106Z,997.08
2019-06-08T03:27:20.270Z,997.13
2019-06-08T03:28:21.271Z,997.08
2019-06-08T03:29:20.558Z,997.12
2019-06-08T03:30:20.718Z,997.06
2019-06-08T03:31:20.922Z,997.16
2019-06-08T03:32:21.777Z,997.25
2019-06-08T03:33:21.291Z,997.19
2019-06-08T03:34:21.779Z,997.21
2019-06-08T03:35:21.697Z,997.23
2019-06-08T03:36:21.853Z,997.07
2019-06-08T03:37:22.057Z,997.13
2019-06-08T03:38:22.222Z,997.13
2019-06-08T03:39:23.291Z,997.11
2019-06-08T03:40:22.543Z,997.15
2019-06-08T03:41:23.718Z,997.15
2019-06-08T03:42:48.988Z,997.17
2019-06-08T03:43:22.994Z,997.13
2019-06-08T03:44:23.167Z,997.17
2019-06-08T03:45:23.300Z,997.19
2019-06-08T03:46:23.495Z,997.29
2019-06-08T03:47:24.269Z,997.23
2019-06-08T03:48:23.808Z,997.17
2019-06-08T03:49:40.278Z,997.23
2019-06-08T03:50:26.148Z,997.30
2019-06-08T03:51:24.317Z,997.26
2019-06-08T03:52:24.486Z,997.28
2019-06-08T03:53:24.648Z,997.25
2019-06-08T03:54:24.803Z,997.36
2019-06-08T03:55:25.964Z,997.21
2019-06-08T03:56:25.131Z,997.22
2019-06-08T03:57:25.306Z,997.35
2019-06-08T03:58:25.495Z,997.28
2019-06-08T03:59:26.278Z,997.31
2019-06-08T04:00:25.793Z,997.46
2019-06-08T04:01:26.007Z,997.35
2019-06-08T04:02:26.283Z,997.44
2019-06-08T04:03:26.358Z,997.38
2019-06-08T04:04:26.547Z,997.39
2019-06-08T04:05:26.712Z,997.35
2019-06-08T04:06:26.873Z,997.46
2019-06-08T04:07:27.287Z,997.40
2019-06-08T04:08:27.777Z,997.42
2019-06-08T04:09:27.433Z,997.37
2019-06-08T04:10:27.611Z,997.44
2019-06-08T04:11:27.785Z,997.33
2019-06-08T04:12:27.969Z,997.43
2019-06-08T04:13:28.137Z,997.39
2019-06-08T04:14:28.338Z,997.48
2019-06-08T04:15:28.546Z,997.48
2019-06-08T04:16:29.280Z,997.38
2019-06-08T04:17:28.960Z,997.51
2019-06-08T04:18:29.171Z,997.46
2019-06-08T04:19:29.355Z,997.44
2019-06-08T04:20:30.284Z,997.38
2019-06-08T04:21:29.659Z,997.42
2019-06-08T04:22:30.292Z,997.30
2019-06-08T04:23:30.079Z,997.50
2019-06-08T04:24:30.781Z,997.53
2019-06-08T04:25:30.438Z,997.49
2019-06-08T04:26:31.616Z,997.42
2019-06-08T04:27:30.778Z,997.48
2019-06-08T04:28:30.995Z,997.47
2019-06-08T04:29:31.773Z,997.53
2019-06-08T04:30:31.313Z,997.49
2019-06-08T04:31:31.503Z,997.68
2019-06-08T04:32:31.703Z,997.41
2019-06-08T04:33:31.913Z,997.61
2019-06-08T04:34:33.096Z,997.52
2019-06-08T04:35:32.237Z,997.55
2019-06-08T04:37:04.801Z,997.59
2019-06-08T04:37:32.580Z,997.55
2019-06-08T04:38:32.774Z,997.58
2019-06-08T04:39:32.979Z,997.61
2019-06-08T04:40:33.820Z,997.61
2019-06-08T04:41:33.332Z,997.57
2019-06-08T04:42:33.491Z,997.60
2019-06-08T04:43:33.711Z,997.58
2019-06-08T04:44:33.911Z,997.72
2019-06-08T04:45:34.130Z,997.68
2019-06-08T04:46:35.317Z,997.71
2019-06-08T04:47:34.608Z,997.55
2019-06-08T04:48:34.840Z,997.72
2019-06-08T04:49:35.025Z,997.78
2019-06-08T04:50:35.186Z,997.70
2019-06-08T04:51:35.364Z,997.74
2019-06-08T04:52:35.542Z,997.73
2019-06-08T04:53:35.832Z,997.75
2019-06-08T04:54:38.766Z,997.79
2019-06-08T04:55:36.083Z,997.76
2019-06-08T04:56:36.258Z,997.80
2019-06-08T04:57:36.429Z,997.73
2019-06-08T04:58:39.070Z,997.79
2019-06-08T04:59:38.995Z,997.72
2019-06-08T05:00:38.901Z,997.72
2019-06-08T05:01:38.847Z,997.76
2019-06-08T05:02:39.364Z,997.84
2019-06-08T05:03:39.228Z,997.84
2019-06-08T05:04:38.985Z,997.88
2019-06-08T05:05:39.277Z,997.98
2019-06-08T05:06:39.143Z,997.91
2019-06-08T05:07:41.433Z,997.92
2019-06-08T05:08:39.026Z,998.00
2019-06-08T05:09:40.996Z,997.97
2019-06-08T05:10:39.245Z,997.98
2019-06-08T05:11:41.063Z,998.06
2019-06-08T05:12:39.308Z,997.98
2019-06-08T05:13:41.102Z,997.81
2019-06-08T05:14:41.029Z,998.05
2019-06-08T05:15:41.285Z,998.03
2019-06-08T05:16:41.171Z,998.00
2019-06-08T05:17:41.345Z,998.00
2019-06-08T05:18:41.253Z,998.10
2019-06-08T05:19:41.428Z,998.01
2019-06-08T05:20:43.077Z,998.09
2019-06-08T05:21:41.758Z,998.03
2019-06-08T05:22:43.283Z,998.07
2019-06-08T05:23:43.305Z,998.09
2019-06-08T05:24:41.381Z,998.15
2019-06-08T05:25:43.149Z,998.13
2019-06-08T05:26:43.566Z,998.19
2019-06-08T05:27:41.742Z,998.23
2019-06-08T05:28:43.191Z,998.19
2019-06-08T05:29:43.192Z,998.13
2019-06-08T05:30:43.233Z,998.27
2019-06-08T05:31:43.526Z,998.28
2019-06-08T05:32:43.568Z,998.20
2019-06-08T05:33:43.452Z,998.32
2019-06-08T05:34:43.996Z,998.27
2019-06-08T05:35:45.439Z,998.29
2019-06-08T05:36:43.406Z,998.30
2019-06-08T05:37:43.715Z,998.28
2019-06-08T05:38:45.614Z,998.29
2019-06-08T05:39:43.807Z,998.21
2019-06-08T05:40:44.000Z,998.44
2019-06-08T05:41:45.503Z,998.31
2019-06-08T05:43:06.219Z,998.38
2019-06-08T05:43:45.662Z,998.36
2019-06-08T05:44:45.835Z,998.43
2019-06-08T05:45:45.808Z,998.38
2019-06-08T05:46:46.082Z,998.63
2019-06-08T05:47:45.802Z,998.34
2019-06-08T05:48:45.898Z,998.48
2019-06-08T05:49:46.337Z,998.51
2019-06-08T05:51:00.576Z,998.58
2019-06-08T05:51:47.914Z,998.58
2019-06-08T05:52:47.982Z,998.65
2019-06-08T05:53:46.158Z,998.53
2019-06-08T05:54:46.318Z,998.71
2019-06-08T05:55:46.496Z,998.68
2019-06-08T05:56:47.952Z,998.89
2019-06-08T05:57:48.185Z,998.80
2019-06-08T05:58:48.079Z,998.66
2019-06-08T05:59:48.184Z,998.71
2019-06-08T06:00:48.347Z,998.80
2019-06-08T06:01:48.650Z,998.81
2019-06-08T06:02:48.927Z,998.99
2019-06-08T06:03:48.747Z,998.61
2019-06-08T06:04:52.153Z,999.01
2019-06-08T06:05:50.645Z,998.82
2019-06-08T06:06:50.739Z,998.83
2019-06-08T06:07:49.026Z,998.83
2019-06-08T06:08:48.782Z,998.80
2019-06-08T06:09:48.958Z,998.83
2019-06-08T06:10:49.163Z,998.92
2019-06-08T06:11:51.198Z,998.85
2019-06-08T06:12:49.529Z,998.96
2019-06-08T06:13:49.706Z,998.81
2019-06-08T06:14:51.254Z,998.85
2019-06-08T06:15:51.877Z,998.93
2019-06-08T06:16:51.306Z,998.84
2019-06-08T06:17:51.599Z,998.82
2019-06-08T06:18:52.174Z,998.85
2019-06-08T06:19:51.513Z,998.83
2019-06-08T06:20:51.492Z,998.88
2019-06-08T06:21:51.512Z,998.87
2019-06-08T06:22:52.886Z,998.92
2019-06-08T06:23:51.596Z,998.93
2019-06-08T06:24:53.347Z,998.87
2019-06-08T06:25:52.363Z,998.83
2019-06-08T06:26:51.958Z,998.89
2019-06-08T06:27:52.145Z,998.90
2019-06-08T06:28:52.863Z,998.82
2019-06-08T06:29:52.864Z,998.93
2019-06-08T06:30:52.670Z,998.93
2019-06-08T06:31:53.881Z,998.83
2019-06-08T06:32:53.024Z,998.87
2019-06-08T06:33:53.216Z,998.91
2019-06-08T06:34:53.418Z,998.76
2019-06-08T06:35:53.598Z,998.73
2019-06-08T06:36:53.807Z,998.82
2019-06-08T06:37:53.998Z,998.82
2019-06-08T06:38:54.188Z,998.82
2019-06-08T06:39:54.373Z,998.84
2019-06-08T06:40:56.357Z,998.89
2019-06-08T06:41:54.804Z,999.00
2019-06-08T06:42:55.000Z,998.89
2019-06-08T06:43:55.837Z,998.83
2019-06-08T06:44:55.369Z,998.94
2019-06-08T06:45:55.530Z,998.87
2019-06-08T06:46:55.853Z,998.90
2019-06-08T06:47:55.880Z,998.94
2019-06-08T06:48:56.072Z,999.12
2019-06-08T06:49:56.260Z,999.07
2019-06-08T06:50:57.347Z,999.05
2019-06-08T06:51:56.861Z,999.12
2019-06-08T06:52:56.776Z,999.10
2019-06-08T06:53:57.361Z,999.13
2019-06-08T06:54:57.174Z,999.10
2019-06-08T06:55:57.386Z,999.23
2019-06-08T06:56:57.590Z,999.11
2019-06-08T06:57:57.805Z,999.20
2019-06-08T06:58:58.354Z,999.20
2019-06-08T06:59:58.851Z,999.03
2019-06-08T07:00:58.276Z,999.15
2019-06-08T07:01:59.359Z,999.16
2019-06-08T07:02:58.655Z,999.15
2019-06-08T07:03:58.846Z,999.27
2019-06-08T07:04:59.037Z,999.31
2019-06-08T07:05:59.215Z,999.28
2019-06-08T07:06:59.420Z,999.05
2019-06-08T07:07:59.625Z,999.23
2019-06-08T07:09:00.365Z,999.41
2019-06-08T07:09:59.977Z,999.31
2019-06-08T07:11:00.195Z,999.13
2019-06-08T07:12:00.397Z,999.22
2019-06-08T07:13:00.615Z,999.30
2019-06-08T07:14:00.818Z,999.27
2019-06-08T07:15:01.064Z,999.24
2019-06-08T07:16:17.293Z,999.48
2019-06-08T07:17:03.405Z,999.39
2019-06-08T07:18:01.545Z,999.40
2019-06-08T07:19:01.754Z,999.51
2019-06-08T07:20:01.972Z,999.42
2019-06-08T07:21:02.151Z,999.41
2019-06-08T07:22:02.856Z,999.41
2019-06-08T07:23:02.533Z,999.43
2019-06-08T07:24:02.735Z,999.50
2019-06-08T07:25:35.338Z,999.50
2019-06-08T07:26:03.120Z,999.50
2019-06-08T07:27:03.296Z,999.59
2019-06-08T07:28:03.448Z,999.52
2019-06-08T07:29:03.618Z,999.49
2019-06-08T07:30:03.836Z,999.53
2019-06-08T07:31:04.051Z,999.60
2019-06-08T07:32:04.194Z,999.62
2019-06-08T07:33:04.361Z,999.62
2019-06-08T07:34:04.545Z,999.70
2019-06-08T07:35:04.748Z,999.71
2019-06-08T07:36:04.969Z,999.55
2019-06-08T07:37:05.884Z,999.63
2019-06-08T07:38:05.374Z,999.72
2019-06-08T07:39:05.484Z,999.67
2019-06-08T07:40:05.727Z,999.67
2019-06-08T07:41:05.972Z,999.68
2019-06-08T07:42:06.041Z,999.73
2019-06-08T07:43:06.231Z,999.67
2019-06-08T07:44:06.429Z,999.73
2019-06-08T07:45:06.618Z,999.73
2019-06-08T07:46:06.851Z,999.70
2019-06-08T07:47:07.045Z,999.66
2019-06-08T07:48:07.220Z,999.70
2019-06-08T07:49:07.419Z,999.73
2019-06-08T07:50:08.388Z,999.74
2019-06-08T07:51:07.807Z,999.75
2019-06-08T07:52:10.609Z,999.74
2019-06-08T07:53:09.901Z,999.80
2019-06-08T07:54:08.278Z,999.90
2019-06-08T07:55:08.443Z,999.83
2019-06-08T07:56:08.628Z,999.80
2019-06-08T07:57:09.391Z,999.73
2019-06-08T07:58:09.898Z,999.87
2019-06-08T07:59:09.080Z,999.95
2019-06-08T08:00:09.877Z,999.80
2019-06-08T08:01:09.494Z,999.79
2019-06-08T08:02:09.907Z,999.82
2019-06-08T08:03:10.390Z,999.82
2019-06-08T08:04:10.052Z,999.84
2019-06-08T08:05:10.248Z,999.89
2019-06-08T08:06:11.414Z,999.86
2019-06-08T08:07:10.653Z,999.84
2019-06-08T08:08:10.833Z,999.88
2019-06-08T08:09:11.046Z,999.99
2019-06-08T08:10:11.276Z,999.85
2019-06-08T08:11:11.479Z,999.92
2019-06-08T08:12:12.458Z,999.92
2019-06-08T08:13:13.391Z,999.93
2019-06-08T08:14:12.954Z,999.92
2019-06-08T08:15:13.108Z,1000.01
2019-06-08T08:16:12.421Z,999.96
2019-06-08T08:17:12.907Z,999.94
2019-06-08T08:18:12.751Z,999.98
2019-06-08T08:19:13.908Z,999.91
2019-06-08T08:20:13.097Z,999.94
2019-06-08T08:21:22.094Z,999.99
2019-06-08T08:22:25.072Z,999.94
2019-06-08T08:23:17.366Z,1000.05
2019-06-08T08:24:13.719Z,1000.04
2019-06-08T08:25:13.926Z,999.94
2019-06-08T08:26:14.904Z,1000.00
2019-06-08T08:27:14.320Z,1000.15
2019-06-08T08:28:14.528Z,999.99
2019-06-08T08:29:14.731Z,999.96
2019-06-08T08:30:17.278Z,999.99
2019-06-08T08:31:18.412Z,1000.09
2019-06-08T08:32:18.836Z,1000.05
2019-06-08T08:33:18.191Z,999.96
2019-06-08T08:34:18.300Z,1000.06
2019-06-08T08:35:18.412Z,1000.08
2019-06-08T08:36:18.043Z,1000.12
2019-06-08T08:37:17.561Z,1000.03
2019-06-08T08:38:17.928Z,1000.07
2019-06-08T08:39:17.659Z,999.97
2019-06-08T08:40:17.938Z,1000.12
2019-06-08T08:41:18.920Z,999.95
2019-06-08T08:42:18.048Z,1000.09
2019-06-08T08:43:18.419Z,1000.07
2019-06-08T08:44:17.925Z,1000.18
2019-06-08T08:45:18.436Z,1000.09
2019-06-08T08:46:17.696Z,1000.10
2019-06-08T08:47:18.710Z,1000.03
2019-06-08T08:48:25.455Z,1000.23
2019-06-08T08:49:20.355Z,1000.20
2019-06-08T08:50:18.492Z,1000.15
2019-06-08T08:51:20.629Z,1000.19
2019-06-08T08:52:33.476Z,1000.23
2019-06-08T08:53:20.039Z,1000.28
2019-06-08T08:54:19.309Z,1000.20
2019-06-08T08:55:20.688Z,1000.37
2019-06-08T08:56:20.603Z,1000.40
2019-06-08T08:57:19.739Z,1000.36
2019-06-08T08:58:19.926Z,1000.39
2019-06-08T08:59:20.478Z,1000.43
2019-06-08T09:00:20.259Z,1000.47
2019-06-08T09:01:21.425Z,1000.43
2019-06-08T09:02:21.366Z,1000.43
2019-06-08T09:03:28.703Z,1000.44
2019-06-08T09:04:23.141Z,1000.49
2019-06-08T09:05:21.431Z,1000.49
2019-06-08T09:06:22.428Z,1000.48
2019-06-08T09:07:21.820Z,1000.46
2019-06-08T09:08:23.475Z,1000.45
2019-06-08T09:09:23.211Z,1000.48
2019-06-08T09:10:22.348Z,1000.57
2019-06-08T09:11:22.487Z,1000.59
2019-06-08T09:12:22.635Z,1000.50
2019-06-08T09:13:23.418Z,1000.52
2019-06-08T09:14:23.902Z,1000.58
2019-06-08T09:15:24.429Z,1000.48
2019-06-08T09:16:23.313Z,1000.50
2019-06-08T09:17:23.488Z,1000.66
2019-06-08T09:18:24.412Z,1000.64
2019-06-08T09:19:23.843Z,1000.56
2019-06-08T09:20:23.996Z,1000.50
2019-06-08T09:21:24.923Z,1000.55
2019-06-08T09:22:24.327Z,1000.65
2019-06-08T09:23:24.506Z,1000.59
2019-06-08T09:24:24.932Z,1000.51
2019-06-08T09:25:27.889Z,1000.58
2019-06-08T09:26:25.053Z,1000.47
2019-06-08T09:27:25.272Z,1000.71
2019-06-08T09:28:25.473Z,1000.79
2019-06-08T09:29:28.891Z,1000.72
2019-06-08T09:30:27.526Z,1000.78
2019-06-08T09:31:28.061Z,1000.72
2019-06-08T09:32:28.256Z,1000.85
2019-06-08T09:33:28.818Z,1000.84
2019-06-08T09:34:28.272Z,1000.90
2019-06-08T09:35:28.067Z,1000.85
2019-06-08T09:36:28.655Z,1000.88
2019-06-08T09:37:28.842Z,1000.97
2019-06-08T09:38:28.782Z,1000.96
2019-06-08T09:39:29.427Z,1000.92
2019-06-08T09:40:31.934Z,1000.90
2019-06-08T09:41:31.245Z,1000.86
2019-06-08T09:42:28.993Z,1001.02
2019-06-08T09:43:28.950Z,1000.88
2019-06-08T09:44:29.282Z,1001.05
2019-06-08T09:45:29.000Z,1001.05
2019-06-08T09:46:29.702Z,1000.99
2019-06-08T09:47:28.931Z,1000.95
2019-06-08T09:48:29.454Z,1001.01
2019-06-08T09:49:29.215Z,1000.94
2019-06-08T09:50:29.379Z,1000.96
2019-06-08T09:51:29.554Z,1001.03
2019-06-08T09:52:29.700Z,1001.02
2019-06-08T09:53:37.225Z,1001.06
2019-06-08T09:54:31.972Z,1001.09
2019-06-08T09:55:30.093Z,1001.19
2019-06-08T09:56:30.272Z,1001.08
2019-06-08T09:57:30.408Z,1001.14
2019-06-08T09:58:30.609Z,1001.23
2019-06-08T09:59:30.767Z,1001.31
2019-06-08T10:00:31.006Z,1001.29
2019-06-08T10:01:31.088Z,1001.20
2019-06-08T10:02:31.255Z,1001.22
2019-06-08T10:03:31.438Z,1001.31
2019-06-08T10:04:31.716Z,1001.30
2019-06-08T10:05:31.788Z,1001.15
2019-06-08T10:06:31.943Z,1001.15
2019-06-08T10:07:32.119Z,1001.20
2019-06-08T10:08:32.298Z,1001.16
2019-06-08T10:09:32.536Z,1001.11
2019-06-08T10:10:32.687Z,1001.24
2019-06-08T10:11:33.926Z,1000.99
2019-06-08T10:12:33.950Z,1001.11
2019-06-08T10:13:33.948Z,1001.11
2019-06-08T10:14:33.382Z,1000.95
2019-06-08T10:15:34.441Z,1001.12
2019-06-08T10:16:33.769Z,1001.00
2019-06-08T10:17:34.013Z,1001.05
2019-06-08T10:18:34.081Z,1001.04
2019-06-08T10:19:34.272Z,1001.02
2019-06-08T10:20:34.468Z,1001.10
2019-06-08T10:21:34.957Z,1001.18
2019-06-08T10:22:34.792Z,1001.23
2019-06-08T10:23:41.193Z,1001.17
2019-06-08T10:24:38.755Z,1001.05
2019-06-08T10:25:38.375Z,1001.09
2019-06-08T10:26:37.643Z,1001.08
2019-06-08T10:27:38.435Z,1001.08
2019-06-08T10:28:35.928Z,1001.11
2019-06-08T10:29:38.167Z,1001.24
2019-06-08T10:30:38.435Z,1001.18
2019-06-08T10:31:43.023Z,1001.17
2019-06-08T10:32:38.688Z,1001.18
2019-06-08T10:33:40.633Z,1001.16
2019-06-08T10:34:38.680Z,1001.13
2019-06-08T10:35:38.959Z,1001.16
2019-06-08T10:36:38.297Z,1001.18
2019-06-08T10:37:39.447Z,1001.16
2019-06-08T10:38:38.401Z,1001.28
2019-06-08T10:39:38.933Z,1001.30
2019-06-08T10:40:38.409Z,1001.25
2019-06-08T10:41:39.218Z,1001.36
2019-06-08T10:42:40.242Z,1001.30
2019-06-08T10:43:39.458Z,1001.24
2019-06-08T10:44:38.624Z,1001.39
2019-06-08T10:45:39.456Z,1001.28
2019-06-08T10:46:40.639Z,1001.29
2019-06-08T10:47:39.452Z,1001.18
2019-06-08T10:48:39.357Z,1001.32
2019-06-08T10:49:39.541Z,1001.26
2019-06-08T10:50:39.748Z,1001.39
2019-06-08T10:51:40.849Z,1001.22
2019-06-08T10:52:41.462Z,1001.19
2019-06-08T10:53:48.378Z,1001.27
2019-06-08T10:54:42.985Z,1001.24
2019-06-08T10:55:40.851Z,1001.30
2019-06-08T10:56:42.479Z,1001.33
2019-06-08T10:57:40.990Z,1001.24
2019-06-08T10:58:41.469Z,1001.27
2019-06-08T10:59:41.414Z,1001.35
2019-06-08T11:00:41.589Z,1001.30
2019-06-08T11:01:41.815Z,1001.27
2019-06-08T11:02:42.955Z,1001.37
2019-06-08T11:03:42.458Z,1001.27
2019-06-08T11:04:43.449Z,1001.40
2019-06-08T11:05:43.484Z,1001.36
2019-06-08T11:06:43.460Z,1001.44
2019-06-08T11:07:42.890Z,1001.42
2019-06-08T11:08:43.146Z,1001.49
2019-06-08T11:09:43.232Z,1001.36
2019-06-08T11:10:43.428Z,1001.43
2019-06-08T11:11:43.615Z,1001.41
2019-06-08T11:12:43.797Z,1001.56
2019-06-08T11:13:44.000Z,1001.51
2019-06-08T11:14:44.177Z,1001.46
2019-06-08T11:15:44.349Z,1001.43
2019-06-08T11:16:47.457Z,1001.40
2019-06-08T11:17:44.677Z,1001.44
2019-06-08T11:18:44.851Z,1001.57
2019-06-08T11:19:47.874Z,1001.47
2019-06-08T11:20:47.758Z,1001.54
2019-06-08T11:21:48.198Z,1001.54
2019-06-08T11:22:49.812Z,1001.57
2019-06-08T11:24:04.726Z,1001.54
2019-06-08T11:24:48.594Z,1001.44
2019-06-08T11:25:48.871Z,1001.50
2019-06-08T11:26:47.981Z,1001.45
2019-06-08T11:27:47.539Z,1001.42
2019-06-08T11:28:48.335Z,1001.30
2019-06-08T11:29:48.509Z,1001.39
2019-06-08T11:30:48.074Z,1001.45
2019-06-08T11:31:51.083Z,1001.36
2019-06-08T11:32:48.267Z,1001.43
2019-06-08T11:33:48.975Z,1001.36
2019-06-08T11:34:48.969Z,1001.51
2019-06-08T11:35:47.751Z,1001.47
2019-06-08T11:36:48.415Z,1001.43
2019-06-08T11:37:49.063Z,1001.58
2019-06-08T11:38:49.010Z,1001.53
2019-06-08T11:39:49.199Z,1001.69
2019-06-08T11:40:49.625Z,1001.62
2019-06-08T11:41:48.865Z,1001.62
2019-06-08T11:42:49.961Z,1001.53
2019-06-08T11:43:49.228Z,1001.64
2019-06-08T11:44:51.145Z,1001.74
2019-06-08T11:45:51.458Z,1001.72
2019-06-08T11:46:49.869Z,1001.66
2019-06-08T11:47:50.049Z,1001.67
2019-06-08T11:48:50.482Z,1001.61
2019-06-08T11:49:50.407Z,1001.64
2019-06-08T11:50:50.555Z,1001.60
2019-06-08T11:51:50.709Z,1001.56
2019-06-08T11:52:50.861Z,1001.65
2019-06-08T11:53:52.299Z,1001.52
2019-06-08T11:54:52.216Z,1001.59
2019-06-08T11:55:51.313Z,1001.45
2019-06-08T11:56:51.441Z,1001.45
2019-06-08T11:57:51.688Z,1001.49
2019-06-08T11:58:52.471Z,1001.40
2019-06-08T11:59:52.011Z,1001.49
2019-06-08T12:00:52.155Z,1001.51
2019-06-08T12:01:52.331Z,1001.38
2019-06-08T12:02:52.510Z,1001.67
2019-06-08T12:03:53.462Z,1001.57
2019-06-08T12:04:52.867Z,1001.70
2019-06-08T12:05:52.995Z,1001.74
2019-06-08T12:06:53.966Z,1001.77
2019-06-08T12:07:53.965Z,1001.80
2019-06-08T12:08:53.466Z,1001.87
2019-06-08T12:09:53.638Z,1001.84
2019-06-08T12:10:53.800Z,1001.77
2019-06-08T12:11:54.473Z,1001.85
2019-06-08T12:12:57.334Z,1001.84
2019-06-08T12:13:54.478Z,1002.06
2019-06-08T12:14:54.368Z,1001.94
2019-06-08T12:15:55.459Z,1001.97
2019-06-08T12:16:55.468Z,1002.04
2019-06-08T12:17:54.879Z,1001.88
2019-06-08T12:18:55.066Z,1001.97
2019-06-08T12:19:57.603Z,1001.98
2019-06-08T12:20:55.458Z,1001.94
2019-06-08T12:21:57.858Z,1002.04
2019-06-08T12:22:56.474Z,1002.08
2019-06-08T12:23:55.979Z,1002.01